createdAt,value
2018-05-18T00:00:16.083Z,42.90
2018-05-18T00:02:44.907Z,43.10
2018-05-18T00:05:13.994Z,43.20
2018-05-18T00:07:42.819Z,43.40
2018-05-18T00:10:11.890Z,43.50
2018-05-18T00:12:41.525Z,44.30
2018-05-18T00:15:10.706Z,44.30
2018-05-18T00:17:40.563Z,44.70
2018-05-18T00:20:09.555Z,44.90
2018-05-18T00:22:38.381Z,44.80
2018-05-18T00:25:07.558Z,45.00
2018-05-18T00:27:36.415Z,45.10
2018-05-18T00:30:05.570Z,45.30
2018-05-18T00:32:34.783Z,45.40
2018-05-18T00:35:03.630Z,45.90
2018-05-18T00:37:32.818Z,46.00
2018-05-18T00:40:02.504Z,46.50
2018-05-18T00:42:32.135Z,46.80
2018-05-18T00:45:01.717Z,46.80
2018-05-18T00:47:30.542Z,46.90
2018-05-18T00:50:00.168Z,47.10
2018-05-18T00:52:28.993Z,47.30
2018-05-18T00:54:57.834Z,47.50
2018-05-18T00:57:27.028Z,47.70
2018-05-18T00:59:55.970Z,47.70
2018-05-18T01:02:24.822Z,47.90
2018-05-18T01:04:54.078Z,47.50
2018-05-18T01:07:22.901Z,47.50
2018-05-18T01:09:51.982Z,47.50
2018-05-18T01:12:20.888Z,47.50
2018-05-18T01:14:50.227Z,47.50
2018-05-18T01:17:19.415Z,47.40
2018-05-18T01:19:48.258Z,47.60
2018-05-18T01:22:17.091Z,47.80
2018-05-18T01:24:45.933Z,48.00
2018-05-18T01:27:14.878Z,47.90
2018-05-18T01:29:43.982Z,48.00
2018-05-18T01:32:12.802Z,47.90
2018-05-18T01:34:42.421Z,48.20
2018-05-18T01:37:12.022Z,48.30
2018-05-18T01:39:41.070Z,48.50
2018-05-18T01:42:09.942Z,48.30
2018-05-18T01:44:38.910Z,48.40
2018-05-18T01:47:08.527Z,48.20
2018-05-18T01:49:38.235Z,48.30
2018-05-18T01:52:07.814Z,48.30
2018-05-18T01:54:37.010Z,48.40
2018-05-18T01:57:05.903Z,48.10
2018-05-18T01:59:34.756Z,48.20
2018-05-18T02:02:04.113Z,48.10
2018-05-18T02:04:32.950Z,48.20
2018-05-18T02:07:02.150Z,48.30
2018-05-18T02:09:32.129Z,48.30
2018-05-18T02:12:01.429Z,48.30
2018-05-18T02:14:30.278Z,48.30
2018-05-18T02:16:59.103Z,48.30
2018-05-18T02:19:27.930Z,48.20
2018-05-18T02:21:56.747Z,48.20
2018-05-18T02:24:26.023Z,48.20
2018-05-18T02:26:56.042Z,48.30
2018-05-18T02:29:24.907Z,48.50
2018-05-18T02:31:53.722Z,48.40
2018-05-18T02:34:22.550Z,48.40
2018-05-18T02:36:51.501Z,48.50
2018-05-18T02:39:20.290Z,48.60
2018-05-18T02:41:49.478Z,48.60
2018-05-18T02:44:18.323Z,48.70
2018-05-18T02:46:47.623Z,48.70
2018-05-18T02:49:18.025Z,48.90
2018-05-18T02:51:47.326Z,48.90
2018-05-18T02:54:16.138Z,49.00
2018-05-18T02:56:45.394Z,49.00
2018-05-18T02:59:14.240Z,48.90
2018-05-18T03:01:43.054Z,49.00
2018-05-18T03:04:12.326Z,49.10
2018-05-18T03:06:41.154Z,49.20
2018-05-18T03:09:10.758Z,49.30
2018-05-18T03:11:40.396Z,49.30
2018-05-18T03:14:09.218Z,49.40
2018-05-18T03:16:38.039Z,49.40
2018-05-18T03:19:07.243Z,49.30
2018-05-18T03:21:36.062Z,49.40
2018-05-18T03:24:05.691Z,49.40
2018-05-18T03:26:34.541Z,49.50
2018-05-18T03:29:03.792Z,49.50
2018-05-18T03:31:32.643Z,49.50
2018-05-18T03:34:01.510Z,49.50
2018-05-18T03:36:30.346Z,49.20
2018-05-18T03:39:00.383Z,49.70
2018-05-18T03:41:29.850Z,49.80
2018-05-18T03:43:58.666Z,49.90
2018-05-18T03:46:28.255Z,50.10
2018-05-18T03:48:57.104Z,50.10
2018-05-18T03:51:25.946Z,50.00
2018-05-18T03:53:55.758Z,50.50
2018-05-18T03:56:25.086Z,50.60
2018-05-18T03:58:54.700Z,50.30
2018-05-18T04:01:36.266Z,50.40
2018-05-18T04:04:17.048Z,50.50
2018-05-18T04:06:58.266Z,50.60
2018-05-18T04:09:27.090Z,50.70
2018-05-18T04:11:55.922Z,50.60
2018-05-18T04:14:25.576Z,50.70
2018-05-18T04:16:54.413Z,51.40
2018-05-18T04:19:24.038Z,50.60
2018-05-18T04:21:53.649Z,50.60
2018-05-18T04:24:23.262Z,50.80
2018-05-18T04:26:52.845Z,50.70
2018-05-18T04:29:22.836Z,50.70
2018-05-18T04:31:52.052Z,51.00
2018-05-18T04:34:21.284Z,50.60
2018-05-18T04:36:51.007Z,50.70
2018-05-18T04:39:20.610Z,50.80
2018-05-18T04:41:50.284Z,50.70
2018-05-18T04:44:19.100Z,50.80
2018-05-18T04:46:47.955Z,50.60
2018-05-18T04:49:16.842Z,50.60
2018-05-18T04:51:45.803Z,50.40
2018-05-18T04:54:15.426Z,50.30
2018-05-18T04:56:45.450Z,50.40
2018-05-18T04:59:14.541Z,50.40
2018-05-18T05:01:43.770Z,51.10
2018-05-18T05:04:12.613Z,50.10
2018-05-18T05:06:41.505Z,50.20
2018-05-18T05:09:10.578Z,50.20
2018-05-18T05:11:39.418Z,49.90
2018-05-18T05:14:09.003Z,49.80
2018-05-18T05:16:37.882Z,49.80
2018-05-18T05:19:06.787Z,49.80
2018-05-18T05:21:35.622Z,49.90
2018-05-18T05:24:05.297Z,49.60
2018-05-18T05:26:34.218Z,49.60
2018-05-18T05:29:03.099Z,50.20
2018-05-18T05:31:32.062Z,49.80
2018-05-18T05:34:01.025Z,49.30
2018-05-18T05:36:29.992Z,49.80
2018-05-18T05:38:59.555Z,48.60
2018-05-18T05:41:29.064Z,49.10
2018-05-18T05:43:57.990Z,48.50
2018-05-18T05:46:26.947Z,48.50
2018-05-18T05:48:56.646Z,48.50
2018-05-18T05:51:25.683Z,48.50
2018-05-18T05:53:54.687Z,48.60
2018-05-18T05:56:23.727Z,48.70
2018-05-18T05:58:53.431Z,48.60
2018-05-18T06:01:23.305Z,48.70
2018-05-18T06:03:52.304Z,49.00
2018-05-18T06:06:22.082Z,48.30
2018-05-18T06:08:51.531Z,48.70
2018-05-18T06:11:20.449Z,48.50
2018-05-18T06:13:49.349Z,48.20
2018-05-18T06:16:18.198Z,48.20
2018-05-18T06:18:47.039Z,48.40
2018-05-18T06:21:15.898Z,48.30
2018-05-18T06:23:44.786Z,47.80
2018-05-18T06:26:13.683Z,48.00
2018-05-18T06:28:42.545Z,47.60
2018-05-18T06:31:11.463Z,47.40
2018-05-18T06:33:40.370Z,47.60
2018-05-18T06:36:09.179Z,47.50
2018-05-18T06:38:38.947Z,47.50
2018-05-18T06:41:08.541Z,47.40
2018-05-18T06:43:37.379Z,47.40
2018-05-18T06:46:06.669Z,47.60
2018-05-18T06:48:36.748Z,47.10
2018-05-18T06:51:05.642Z,46.90
2018-05-18T06:53:34.502Z,46.40
2018-05-18T06:56:03.451Z,46.30
2018-05-18T06:58:32.600Z,46.40
2018-05-18T07:01:02.795Z,46.30
2018-05-18T07:03:31.704Z,45.80
2018-05-18T07:06:00.554Z,45.80
2018-05-18T07:08:29.398Z,45.70
2018-05-18T07:10:58.295Z,46.20
2018-05-18T07:13:27.183Z,45.10
2018-05-18T07:15:56.030Z,44.90
2018-05-18T07:18:24.901Z,44.80
2018-05-18T07:20:54.774Z,44.20
2018-05-18T07:23:24.434Z,44.30
2018-05-18T07:25:53.294Z,44.30
2018-05-18T07:28:22.143Z,43.60
2018-05-18T07:30:51.029Z,43.70
2018-05-18T07:33:20.013Z,43.70
2018-05-18T07:35:48.866Z,43.60
2018-05-18T07:38:17.749Z,43.30
2018-05-18T07:40:46.606Z,42.70
2018-05-18T07:43:16.729Z,42.60
2018-05-18T07:45:45.633Z,41.90
2018-05-18T07:48:14.674Z,42.30
2018-05-18T07:50:43.786Z,41.50
2018-05-18T07:53:12.650Z,41.60
2018-05-18T07:55:42.355Z,41.20
2018-05-18T07:58:12.503Z,41.90
2018-05-18T08:00:41.421Z,41.30
2018-05-18T08:03:10.346Z,41.60
2018-05-18T08:05:39.390Z,41.70
2018-05-18T08:08:08.371Z,41.50
2018-05-18T08:10:38.529Z,40.90
2018-05-18T08:13:07.769Z,40.70
2018-05-18T08:15:36.757Z,41.00
2018-05-18T08:18:05.838Z,40.10
2018-05-18T08:20:34.864Z,40.30
2018-05-18T08:23:04.010Z,40.30
2018-05-18T08:25:33.112Z,40.10
2018-05-18T08:28:02.156Z,40.00
2018-05-18T08:30:43.783Z,38.90
2018-05-18T08:33:12.774Z,38.90
2018-05-18T08:35:42.466Z,39.20
2018-05-18T08:38:11.586Z,39.20
2018-05-18T08:40:41.313Z,38.30
2018-05-18T08:43:10.236Z,38.20
2018-05-18T08:45:39.623Z,38.50
2018-05-18T08:48:08.735Z,38.50
2018-05-18T08:50:37.673Z,38.20
2018-05-18T08:53:06.650Z,38.30
2018-05-18T08:55:35.673Z,38.20
2018-05-18T08:58:04.646Z,38.30
2018-05-18T09:00:33.659Z,39.00
2018-05-18T09:03:02.721Z,38.30
2018-05-18T09:05:31.786Z,37.30
2018-05-18T09:08:00.813Z,37.60
2018-05-18T09:10:29.844Z,37.30
2018-05-18T09:12:59.637Z,36.90
2018-05-18T09:15:28.607Z,36.80
2018-05-18T09:17:57.602Z,36.70
2018-05-18T09:20:26.869Z,36.50
2018-05-18T09:22:56.096Z,36.40
2018-05-18T09:25:25.840Z,34.20
2018-05-18T09:27:54.952Z,34.20
2018-05-18T09:30:23.959Z,35.20
2018-05-18T09:32:53.941Z,34.20
2018-05-18T09:35:22.957Z,34.20
2018-05-18T09:37:51.938Z,34.20
2018-05-18T09:40:21.325Z,34.20
2018-05-18T09:42:50.770Z,34.30
2018-05-18T09:45:20.525Z,34.60
2018-05-18T09:47:51.171Z,34.00
2018-05-18T09:50:20.130Z,33.70
2018-05-18T09:52:49.311Z,32.70
2018-05-18T09:55:19.423Z,33.80
2018-05-18T09:57:48.363Z,31.80
2018-05-18T10:00:18.136Z,32.40
2018-05-18T10:02:48.922Z,32.40
2018-05-18T10:05:19.367Z,32.20
2018-05-18T10:07:49.411Z,32.30
2018-05-18T10:10:18.613Z,32.20
2018-05-18T10:12:48.449Z,31.90
2018-05-18T10:15:17.678Z,30.80
2018-05-18T10:17:47.060Z,31.20
2018-05-18T10:20:16.259Z,30.60
2018-05-18T10:22:45.574Z,30.60
2018-05-18T10:25:15.073Z,30.10
2018-05-18T10:27:44.454Z,30.70
2018-05-18T10:30:14.311Z,30.30
2018-05-18T10:32:43.933Z,30.30
2018-05-18T10:35:13.085Z,30.30
2018-05-18T10:37:43.033Z,30.60
2018-05-18T10:40:13.850Z,30.60
2018-05-18T10:42:43.069Z,30.50
2018-05-18T10:45:12.411Z,30.00
2018-05-18T10:47:41.683Z,30.00
2018-05-18T10:50:10.759Z,30.30
2018-05-18T10:52:41.676Z,29.90
2018-05-18T10:55:11.009Z,29.90
2018-05-18T10:57:41.040Z,29.50
2018-05-18T11:00:10.456Z,29.40
2018-05-18T11:02:41.274Z,30.00
2018-05-18T11:05:11.422Z,30.00
2018-05-18T11:07:41.609Z,29.70
2018-05-18T11:10:11.432Z,29.60
2018-05-18T11:12:40.782Z,29.50
2018-05-18T11:15:10.064Z,29.40
2018-05-18T11:17:39.928Z,29.90
2018-05-18T11:20:08.980Z,29.10
2018-05-18T11:22:40.565Z,29.00
2018-05-18T11:25:10.631Z,29.20
2018-05-18T11:27:40.632Z,28.70
2018-05-18T11:30:09.965Z,28.50
2018-05-18T11:32:39.769Z,27.80
2018-05-18T11:35:09.802Z,27.40
2018-05-18T11:37:39.220Z,27.30
2018-05-18T11:40:09.591Z,27.80
2018-05-18T11:42:38.655Z,27.80
2018-05-18T11:45:07.858Z,27.30
2018-05-18T11:47:37.092Z,27.80
2018-05-18T11:50:06.461Z,27.40
2018-05-18T11:52:35.420Z,26.90
2018-05-18T11:55:06.398Z,27.40
2018-05-18T11:57:35.384Z,26.70
2018-05-18T12:00:04.810Z,26.50
2018-05-18T12:02:33.804Z,26.20
2018-05-18T12:05:04.404Z,25.50
2018-05-18T12:07:34.923Z,26.80
2018-05-18T12:10:05.073Z,26.20
2018-05-18T12:12:34.625Z,26.10
2018-05-18T12:15:04.619Z,25.70
2018-05-18T12:17:34.052Z,25.70
2018-05-18T12:20:03.446Z,26.40
2018-05-18T12:22:32.643Z,26.20
2018-05-18T12:25:01.656Z,25.90
2018-05-18T12:27:30.579Z,26.20
2018-05-18T12:29:59.988Z,26.40
2018-05-18T12:32:29.775Z,26.00
2018-05-18T12:34:59.887Z,25.90
2018-05-18T12:37:29.975Z,25.60
2018-05-18T12:39:59.952Z,25.70
2018-05-18T12:42:31.505Z,25.70
2018-05-18T12:45:01.377Z,25.80
2018-05-18T12:47:30.441Z,25.80
2018-05-18T12:49:59.639Z,25.10
2018-05-18T12:52:29.367Z,25.10
2018-05-18T12:54:58.416Z,24.80
2018-05-18T12:57:27.799Z,24.50
2018-05-18T12:59:57.601Z,24.70
2018-05-18T13:02:27.713Z,24.90
2018-05-18T13:04:57.101Z,24.80
2018-05-18T13:07:26.217Z,24.80
2018-05-18T13:09:55.286Z,24.90
2018-05-18T13:12:24.239Z,25.00
2018-05-18T13:14:53.615Z,25.00
2018-05-18T13:17:22.980Z,25.20
2018-05-18T13:19:52.488Z,25.20
2018-05-18T13:22:21.519Z,23.50
2018-05-18T13:24:50.867Z,23.70
2018-05-18T13:27:20.598Z,23.70
2018-05-18T13:29:49.743Z,23.60
2018-05-18T13:32:18.781Z,23.80
2018-05-18T13:34:48.189Z,24.20
2018-05-18T13:37:18.505Z,25.20
2018-05-18T13:39:49.107Z,23.90
2018-05-18T13:42:18.141Z,23.80
2018-05-18T13:44:47.132Z,24.50
2018-05-18T13:47:17.150Z,24.40
2018-05-18T13:49:45.990Z,24.30
2018-05-18T13:52:14.952Z,24.10
2018-05-18T13:54:44.779Z,23.20
2018-05-18T13:57:13.695Z,23.00
2018-05-18T13:59:42.566Z,23.00
2018-05-18T14:02:11.422Z,23.80
2018-05-18T14:04:41.095Z,23.70
2018-05-18T14:07:10.018Z,23.50
2018-05-18T14:09:39.300Z,23.30
2018-05-18T14:12:08.182Z,23.50
2018-05-18T14:14:38.285Z,24.50
2018-05-18T14:17:07.931Z,24.00
2018-05-18T14:19:36.858Z,24.00
2018-05-18T14:22:05.717Z,23.60
2018-05-18T14:24:34.591Z,23.20
2018-05-18T14:27:04.253Z,23.80
2018-05-18T14:29:33.115Z,23.80
2018-05-18T14:32:02.083Z,23.20
2018-05-18T14:34:31.809Z,23.70
2018-05-18T14:37:00.670Z,23.60
2018-05-18T14:39:30.491Z,23.10
2018-05-18T14:41:59.363Z,22.90
2018-05-18T14:44:28.278Z,22.80
2018-05-18T14:46:57.263Z,22.20
2018-05-18T14:49:26.186Z,22.00
2018-05-18T14:51:56.144Z,23.50
2018-05-18T14:54:25.006Z,23.40
2018-05-18T14:56:54.538Z,23.30
2018-05-18T14:59:23.499Z,23.40
2018-05-18T15:01:52.794Z,23.30
2018-05-18T15:04:21.813Z,23.70
2018-05-18T15:06:51.491Z,23.50
2018-05-18T15:09:20.444Z,23.50
2018-05-18T15:11:50.239Z,23.40
2018-05-18T15:14:19.955Z,22.90
2018-05-18T15:16:49.685Z,23.10
2018-05-18T15:19:19.965Z,23.20
2018-05-18T15:21:49.638Z,23.40
2018-05-18T15:24:18.519Z,23.40
2018-05-18T15:26:47.426Z,23.20
2018-05-18T15:29:16.386Z,23.40
2018-05-18T15:31:45.550Z,23.30
2018-05-18T15:34:15.203Z,22.90
2018-05-18T15:36:44.583Z,22.90
2018-05-18T15:39:14.042Z,22.40
2018-05-18T15:41:43.031Z,22.50
2018-05-18T15:44:12.720Z,21.70
2018-05-18T15:46:41.845Z,21.70
2018-05-18T15:49:11.488Z,22.80
2018-05-18T15:51:40.367Z,22.80
2018-05-18T15:54:09.655Z,22.90
2018-05-18T15:56:40.327Z,22.60
2018-05-18T15:59:09.214Z,22.70
2018-05-18T16:01:38.135Z,22.00
2018-05-18T16:04:07.437Z,22.70
2018-05-18T16:06:36.661Z,22.30
2018-05-18T16:09:05.987Z,22.30
2018-05-18T16:11:35.625Z,23.00
2018-05-18T16:14:04.646Z,23.00
2018-05-18T16:16:33.498Z,22.70
2018-05-18T16:19:02.449Z,22.70
2018-05-18T16:21:31.338Z,22.70
2018-05-18T16:24:00.198Z,22.80
2018-05-18T16:26:29.078Z,22.70
2018-05-18T16:28:58.688Z,22.50
2018-05-18T16:31:27.790Z,22.50
2018-05-18T16:33:57.451Z,22.60
2018-05-18T16:36:26.348Z,22.60
2018-05-18T16:38:55.230Z,22.50
2018-05-18T16:41:24.087Z,22.90
2018-05-18T16:43:52.999Z,22.80
2018-05-18T16:46:21.898Z,22.30
2018-05-18T16:48:50.859Z,22.30
2018-05-18T16:51:20.536Z,22.60
2018-05-18T16:53:50.593Z,23.00
2018-05-18T16:56:20.283Z,22.70
2018-05-18T16:58:49.698Z,22.60
2018-05-18T17:01:19.325Z,22.50
2018-05-18T17:03:48.619Z,22.50
2018-05-18T17:06:17.471Z,22.30
2018-05-18T17:08:46.341Z,22.50
2018-05-18T17:11:15.223Z,22.50
2018-05-18T17:13:45.361Z,22.30
2018-05-18T17:16:14.274Z,22.30
2018-05-18T17:18:43.209Z,22.10
2018-05-18T17:21:12.092Z,22.30
2018-05-18T17:23:41.973Z,22.40
2018-05-18T17:26:10.871Z,22.40
2018-05-18T17:28:40.070Z,22.30
2018-05-18T17:31:08.966Z,22.40
2018-05-18T17:33:37.862Z,22.40
2018-05-18T17:36:06.780Z,22.40
2018-05-18T17:38:36.418Z,22.70
2018-05-18T17:41:05.830Z,22.60
2018-05-18T17:43:34.706Z,22.70
2018-05-18T17:46:03.673Z,22.60
2018-05-18T17:48:32.526Z,22.90
2018-05-18T17:51:02.244Z,23.00
2018-05-18T17:53:31.927Z,23.00
2018-05-18T17:56:01.163Z,22.90
2018-05-18T17:58:30.967Z,23.10
2018-05-18T18:01:00.688Z,23.10
2018-05-18T18:03:30.308Z,23.00
2018-05-18T18:06:00.210Z,23.00
2018-05-18T18:08:29.889Z,22.90
2018-05-18T18:10:58.938Z,22.80
2018-05-18T18:13:28.723Z,23.10
2018-05-18T18:15:58.188Z,23.10
2018-05-18T18:18:27.215Z,23.30
2018-05-18T18:20:56.627Z,23.40
2018-05-18T18:23:25.629Z,23.40
2018-05-18T18:25:54.696Z,23.40
2018-05-18T18:28:23.616Z,23.60
2018-05-18T18:30:52.593Z,23.70
2018-05-18T18:33:21.486Z,23.90
2018-05-18T18:35:50.426Z,24.00
2018-05-18T18:38:19.401Z,24.30
2018-05-18T18:40:48.341Z,24.90
2018-05-18T18:43:17.291Z,24.80
2018-05-18T18:45:46.740Z,25.20
2018-05-18T18:48:15.680Z,25.70
2018-05-18T18:50:44.611Z,25.60
2018-05-18T18:53:13.536Z,25.50
2018-05-18T18:55:43.166Z,25.30
2018-05-18T18:58:12.170Z,25.30
2018-05-18T19:00:41.096Z,25.10
2018-05-18T19:03:10.315Z,25.00
2018-05-18T19:05:39.183Z,25.40
2018-05-18T19:08:08.503Z,24.70
2018-05-18T19:10:37.386Z,25.10
2018-05-18T19:13:06.218Z,25.40
2018-05-18T19:15:35.900Z,25.60
2018-05-18T19:18:04.946Z,25.60
2018-05-18T19:20:33.831Z,25.70
2018-05-18T19:23:03.664Z,26.10
2018-05-18T19:25:32.708Z,26.10
2018-05-18T19:28:02.315Z,26.10
2018-05-18T19:30:31.285Z,26.30
2018-05-18T19:33:00.555Z,26.50
2018-05-18T19:35:30.343Z,26.80
2018-05-18T19:38:01.392Z,26.90
2018-05-18T19:40:30.275Z,26.90
2018-05-18T19:42:59.545Z,27.00
2018-05-18T19:45:29.277Z,27.40
2018-05-18T19:47:58.233Z,27.30
2018-05-18T19:50:27.117Z,27.50
2018-05-18T19:52:56.750Z,27.80
2018-05-18T19:55:25.681Z,28.40
2018-05-18T19:57:54.523Z,27.90
2018-05-18T20:00:24.245Z,28.30
2018-05-18T20:02:53.110Z,28.20
2018-05-18T20:05:22.066Z,28.40
2018-05-18T20:07:50.961Z,28.50
2018-05-18T20:10:19.847Z,28.70
2018-05-18T20:12:48.711Z,28.90
2018-05-18T20:15:18.429Z,29.90
2018-05-18T20:17:48.047Z,30.20
2018-05-18T20:20:16.993Z,30.30
2018-05-18T20:22:46.556Z,30.30
2018-05-18T20:25:15.452Z,30.20
2018-05-18T20:27:44.335Z,30.20
2018-05-18T20:30:13.996Z,31.20
2018-05-18T20:32:43.258Z,31.20
2018-05-18T20:35:12.484Z,31.40
2018-05-18T20:37:41.448Z,32.00
2018-05-18T20:40:11.058Z,32.40
2018-05-18T20:42:40.691Z,32.60
2018-05-18T20:45:09.644Z,32.60
2018-05-18T20:47:38.522Z,32.80
2018-05-18T20:50:07.423Z,32.90
2018-05-18T20:52:36.333Z,32.90
2018-05-18T20:55:05.644Z,33.00
2018-05-18T20:57:34.575Z,33.30
2018-05-18T21:00:03.516Z,33.50
2018-05-18T21:02:32.372Z,34.20
2018-05-18T21:05:01.604Z,33.70
2018-05-18T21:07:30.504Z,33.70
2018-05-18T21:09:59.439Z,33.80
2018-05-18T21:12:28.328Z,33.70
2018-05-18T21:14:58.088Z,34.10
2018-05-18T21:17:27.050Z,34.30
2018-05-18T21:19:56.038Z,34.30
2018-05-18T21:22:25.720Z,34.70
2018-05-18T21:24:55.665Z,34.80
2018-05-18T21:27:24.552Z,34.80
2018-05-18T21:29:53.407Z,35.60
2018-05-18T21:32:22.319Z,35.30
2018-05-18T21:34:51.460Z,35.50
2018-05-18T21:37:21.097Z,35.80
2018-05-18T21:39:50.037Z,35.90
2018-05-18T21:42:19.335Z,36.00
2018-05-18T21:44:48.561Z,36.80
2018-05-18T21:47:18.190Z,36.60
2018-05-18T21:49:47.037Z,36.70
2018-05-18T21:52:15.918Z,36.50
2018-05-18T21:54:44.861Z,36.80
2018-05-18T21:57:13.694Z,37.40
2018-05-18T21:59:42.530Z,37.60
2018-05-18T22:02:11.473Z,37.50
2018-05-18T22:04:40.313Z,37.40
2018-05-18T22:07:09.145Z,38.30
2018-05-18T22:09:39.063Z,39.00
2018-05-18T22:12:08.234Z,39.10
2018-05-18T22:14:37.091Z,39.20
2018-05-18T22:17:05.951Z,39.20
2018-05-18T22:19:35.577Z,40.10
2018-05-18T22:22:04.398Z,40.20
2018-05-18T22:24:33.278Z,40.30
2018-05-18T22:27:02.209Z,40.60
2018-05-18T22:29:31.432Z,40.70
2018-05-18T22:32:00.286Z,41.00
2018-05-18T22:34:29.169Z,41.40
2018-05-18T22:36:58.063Z,41.60
2018-05-18T22:39:26.928Z,41.70
2018-05-18T22:41:56.557Z,42.10
2018-05-18T22:44:25.390Z,42.30
2018-05-18T22:46:54.300Z,43.40
2018-05-18T22:49:23.126Z,43.60
2018-05-18T22:51:52.734Z,44.20
2018-05-18T22:54:22.385Z,44.30
2018-05-18T22:56:51.269Z,44.50
2018-05-18T22:59:20.259Z,44.50
2018-05-18T23:01:49.367Z,44.90
2018-05-18T23:04:19.369Z,45.60
2018-05-18T23:06:48.521Z,45.80
2018-05-18T23:09:17.516Z,45.40
2018-05-18T23:11:46.828Z,45.30
2018-05-18T23:14:15.864Z,45.00
2018-05-18T23:16:44.823Z,45.20
2018-05-18T23:19:13.781Z,45.30
2018-05-18T23:21:42.728Z,45.60
2018-05-18T23:24:12.463Z,46.50
2018-05-18T23:26:41.423Z,46.30
2018-05-18T23:29:11.536Z,46.30
2018-05-18T23:31:40.532Z,46.30
2018-05-18T23:34:10.480Z,47.40
2018-05-18T23:36:40.169Z,47.90
2018-05-18T23:39:09.894Z,48.20
2018-05-18T23:41:38.809Z,48.60
2018-05-18T23:44:08.568Z,49.20
2018-05-18T23:46:37.517Z,49.50
2018-05-18T23:49:07.246Z,49.60
2018-05-18T23:51:36.245Z,49.80
2018-05-18T23:54:05.665Z,50.00
2018-05-18T23:56:35.030Z,50.40
2018-05-18T23:59:03.988Z,50.50
